sensor_id;sensor_type;location;lat;lon;timestamp;temperature;humidity
33761;DHT22;20084;47.912;19.044;2023-04-24T00:00:55;11.10;99.90
33761;DHT22;20084;47.912;19.044;2023-04-24T00:03:26;11.10;99.90
33761;DHT22;20084;47.912;19.044;2023-04-24T00:05:53;11.10;99.90
33761;DHT22;20084;47.912;19.044;2023-04-24T00:08:19;11.20;99.90
33761;DHT22;20084;47.912;19.044;2023-04-24T00:10:44;11.10;99.90
33761;DHT22;20084;47.912;19.044;2023-04-24T00:13:10;11.00;99.90
33761;DHT22;20084;47.912;19.044;2023-04-24T00:15:35;10.90;99.90
33761;DHT22;20084;47.912;19.044;2023-04-24T00:18:01;10.80;99.90
33761;DHT22;20084;47.912;19.044;2023-04-24T00:20:27;10.70;99.90
33761;DHT22;20084;47.912;19.044;2023-04-24T00:22:54;10.70;99.90
33761;DHT22;20084;47.912;19.044;2023-04-24T00:25:20;10.70;99.90
33761;DHT22;20084;47.912;19.044;2023-04-24T00:27:46;10.70;99.90
33761;DHT22;20084;47.912;19.044;2023-04-24T00:30:11;10.70;99.90
33761;DHT22;20084;47.912;19.044;2023-04-24T00:32:37;10.80;99.90
33761;DHT22;20084;47.912;19.044;2023-04-24T00:35:02;10.80;99.90
33761;DHT22;20084;47.912;19.044;2023-04-24T00:37:28;10.90;99.90
33761;DHT22;20084;47.912;19.044;2023-04-24T00:39:53;11.00;99.90
33761;DHT22;20084;47.912;19.044;2023-04-24T00:42:19;11.00;99.90
33761;DHT22;20084;47.912;19.044;2023-04-24T00:44:45;11.10;99.90
33761;DHT22;20084;47.912;19.044;2023-04-24T00:47:11;11.10;99.90
33761;DHT22;20084;47.912;19.044;2023-04-24T00:49:38;11.10;99.90
33761;DHT22;20084;47.912;19.044;2023-04-24T00:52:03;11.10;99.90
33761;DHT22;20084;47.912;19.044;2023-04-24T00:54:32;11.10;99.90
33761;DHT22;20084;47.912;19.044;2023-04-24T00:56:58;11.10;99.90
33761;DHT22;20084;47.912;19.044;2023-04-24T00:59:24;11.20;99.90
33761;DHT22;20084;47.912;19.044;2023-04-24T01:01:50;11.20;99.90
33761;DHT22;20084;47.912;19.044;2023-04-24T01:04:15;11.20;99.90
33761;DHT22;20084;47.912;19.044;2023-04-24T01:06:43;11.30;99.90
33761;DHT22;20084;47.912;19.044;2023-04-24T01:09:09;11.40;99.90
33761;DHT22;20084;47.912;19.044;2023-04-24T01:11:36;11.40;99.90
33761;DHT22;20084;47.912;19.044;2023-04-24T01:14:02;11.40;99.90
33761;DHT22;20084;47.912;19.044;2023-04-24T01:16:27;11.50;99.90
33761;DHT22;20084;47.912;19.044;2023-04-24T01:18:53;11.50;99.90
33761;DHT22;20084;47.912;19.044;2023-04-24T01:21:18;11.40;99.90
33761;DHT22;20084;47.912;19.044;2023-04-24T01:23:46;11.20;99.90
33761;DHT22;20084;47.912;19.044;2023-04-24T01:26:12;11.20;99.90
33761;DHT22;20084;47.912;19.044;2023-04-24T01:28:39;11.20;99.90
33761;DHT22;20084;47.912;19.044;2023-04-24T01:31:05;11.30;99.90
33761;DHT22;20084;47.912;19.044;2023-04-24T01:33:30;11.30;99.90
33761;DHT22;20084;47.912;19.044;2023-04-24T01:35:56;11.40;99.90
33761;DHT22;20084;47.912;19.044;2023-04-24T01:38:21;11.40;99.90
33761;DHT22;20084;47.912;19.044;2023-04-24T01:40:47;11.40;99.90
33761;DHT22;20084;47.912;19.044;2023-04-24T01:43:13;11.40;99.90
33761;DHT22;20084;47.912;19.044;2023-04-24T01:45:38;11.50;99.90
33761;DHT22;20084;47.912;19.044;2023-04-24T01:48:04;11.50;99.90
33761;DHT22;20084;47.912;19.044;2023-04-24T01:50:30;11.50;99.90
33761;DHT22;20084;47.912;19.044;2023-04-24T01:52:55;11.50;99.90
33761;DHT22;20084;47.912;19.044;2023-04-24T01:55:21;11.50;99.90
33761;DHT22;20084;47.912;19.044;2023-04-24T01:57:46;11.50;99.90
33761;DHT22;20084;47.912;19.044;2023-04-24T02:00:12;11.40;99.90
33761;DHT22;20084;47.912;19.044;2023-04-24T02:02:41;11.40;99.90
33761;DHT22;20084;47.912;19.044;2023-04-24T02:05:07;11.40;99.90
33761;DHT22;20084;47.912;19.044;2023-04-24T02:07:33;11.40;99.90
33761;DHT22;20084;47.912;19.044;2023-04-24T02:09:58;11.40;99.90
33761;DHT22;20084;47.912;19.044;2023-04-24T02:12:24;11.50;99.90
33761;DHT22;20084;47.912;19.044;2023-04-24T02:14:49;11.50;99.90
33761;DHT22;20084;47.912;19.044;2023-04-24T02:17:15;11.70;99.90
33761;DHT22;20084;47.912;19.044;2023-04-24T02:19:41;11.70;99.90
33761;DHT22;20084;47.912;19.044;2023-04-24T02:22:07;11.80;99.90
33761;DHT22;20084;47.912;19.044;2023-04-24T02:24:32;11.70;99.90
33761;DHT22;20084;47.912;19.044;2023-04-24T02:26:58;11.60;99.90
33761;DHT22;20084;47.912;19.044;2023-04-24T02:29:23;11.60;99.90
33761;DHT22;20084;47.912;19.044;2023-04-24T02:31:49;11.60;99.90
33761;DHT22;20084;47.912;19.044;2023-04-24T02:34:14;11.70;99.90
33761;DHT22;20084;47.912;19.044;2023-04-24T02:36:40;11.70;99.90
33761;DHT22;20084;47.912;19.044;2023-04-24T02:39:05;11.70;99.90
33761;DHT22;20084;47.912;19.044;2023-04-24T02:41:31;11.80;99.90
33761;DHT22;20084;47.912;19.044;2023-04-24T02:43:58;11.90;99.90
33761;DHT22;20084;47.912;19.044;2023-04-24T02:46:23;11.80;99.90
33761;DHT22;20084;47.912;19.044;2023-04-24T02:48:49;11.80;99.90
33761;DHT22;20084;47.912;19.044;2023-04-24T02:51:14;11.80;99.90
33761;DHT22;20084;47.912;19.044;2023-04-24T02:53:40;11.80;99.90
33761;DHT22;20084;47.912;19.044;2023-04-24T02:56:05;11.70;99.90
33761;DHT22;20084;47.912;19.044;2023-04-24T02:58:31;11.70;99.90
33761;DHT22;20084;47.912;19.044;2023-04-24T03:00:56;11.60;99.90
33761;DHT22;20084;47.912;19.044;2023-04-24T03:03:22;11.60;99.90
33761;DHT22;20084;47.912;19.044;2023-04-24T03:05:48;11.70;99.90
33761;DHT22;20084;47.912;19.044;2023-04-24T03:08:14;11.70;99.90
33761;DHT22;20084;47.912;19.044;2023-04-24T03:10:39;11.80;99.90
33761;DHT22;20084;47.912;19.044;2023-04-24T03:13:05;11.90;99.90
33761;DHT22;20084;47.912;19.044;2023-04-24T03:15:30;11.90;99.90
33761;DHT22;20084;47.912;19.044;2023-04-24T03:17:56;11.90;99.90
33761;DHT22;20084;47.912;19.044;2023-04-24T03:20:22;11.90;99.90
33761;DHT22;20084;47.912;19.044;2023-04-24T03:22:47;11.80;99.90
33761;DHT22;20084;47.912;19.044;2023-04-24T03:25:13;11.70;99.90
33761;DHT22;20084;47.912;19.044;2023-04-24T03:27:38;11.80;99.90
33761;DHT22;20084;47.912;19.044;2023-04-24T03:30:05;11.90;99.90
33761;DHT22;20084;47.912;19.044;2023-04-24T03:32:31;12.00;99.90
33761;DHT22;20084;47.912;19.044;2023-04-24T03:34:57;12.00;99.90
33761;DHT22;20084;47.912;19.044;2023-04-24T03:37:23;12.10;99.90
33761;DHT22;20084;47.912;19.044;2023-04-24T03:39:48;12.10;99.90
33761;DHT22;20084;47.912;19.044;2023-04-24T03:42:14;12.10;99.90
33761;DHT22;20084;47.912;19.044;2023-04-24T03:44:39;12.20;99.90
33761;DHT22;20084;47.912;19.044;2023-04-24T03:47:05;12.10;99.90
33761;DHT22;20084;47.912;19.044;2023-04-24T03:49:30;12.20;99.90
33761;DHT22;20084;47.912;19.044;2023-04-24T03:51:56;12.20;99.90
33761;DHT22;20084;47.912;19.044;2023-04-24T03:54:21;12.20;99.90
33761;DHT22;20084;47.912;19.044;2023-04-24T03:56:47;12.20;99.90
33761;DHT22;20084;47.912;19.044;2023-04-24T03:59:12;12.20;99.90
33761;DHT22;20084;47.912;19.044;2023-04-24T04:01:38;12.20;99.90
33761;DHT22;20084;47.912;19.044;2023-04-24T04:04:05;12.20;99.90
33761;DHT22;20084;47.912;19.044;2023-04-24T04:06:30;12.20;99.90
33761;DHT22;20084;47.912;19.044;2023-04-24T04:08:56;12.30;99.90
33761;DHT22;20084;47.912;19.044;2023-04-24T04:11:22;12.30;99.90
33761;DHT22;20084;47.912;19.044;2023-04-24T04:13:47;12.30;99.90
33761;DHT22;20084;47.912;19.044;2023-04-24T04:16:13;12.30;99.90
33761;DHT22;20084;47.912;19.044;2023-04-24T04:18:39;12.30;99.90
33761;DHT22;20084;47.912;19.044;2023-04-24T04:21:04;12.30;99.90
33761;DHT22;20084;47.912;19.044;2023-04-24T04:23:30;12.30;99.90
33761;DHT22;20084;47.912;19.044;2023-04-24T04:25:57;12.40;99.90
33761;DHT22;20084;47.912;19.044;2023-04-24T04:28:22;12.40;99.90
33761;DHT22;20084;47.912;19.044;2023-04-24T04:30:50;12.40;99.90
33761;DHT22;20084;47.912;19.044;2023-04-24T04:33:21;12.40;99.90
33761;DHT22;20084;47.912;19.044;2023-04-24T04:35:47;12.40;99.90
33761;DHT22;20084;47.912;19.044;2023-04-24T04:38:14;12.40;99.90
33761;DHT22;20084;47.912;19.044;2023-04-24T04:40:40;12.40;99.90
33761;DHT22;20084;47.912;19.044;2023-04-24T04:43:06;12.40;99.90
33761;DHT22;20084;47.912;19.044;2023-04-24T04:45:31;12.40;99.90
33761;DHT22;20084;47.912;19.044;2023-04-24T04:47:58;12.40;99.90
33761;DHT22;20084;47.912;19.044;2023-04-24T04:50:26;12.50;99.90
33761;DHT22;20084;47.912;19.044;2023-04-24T04:52:52;12.50;99.90
33761;DHT22;20084;47.912;19.044;2023-04-24T04:55:17;12.50;99.90
33761;DHT22;20084;47.912;19.044;2023-04-24T04:57:43;12.50;99.90
33761;DHT22;20084;47.912;19.044;2023-04-24T05:00:09;12.50;99.90
33761;DHT22;20084;47.912;19.044;2023-04-24T05:02:36;12.50;99.90
33761;DHT22;20084;47.912;19.044;2023-04-24T05:05:01;12.50;99.90
33761;DHT22;20084;47.912;19.044;2023-04-24T05:07:27;12.60;99.90
33761;DHT22;20084;47.912;19.044;2023-04-24T05:09:52;12.70;99.90
33761;DHT22;20084;47.912;19.044;2023-04-24T05:12:17;12.70;99.90
33761;DHT22;20084;47.912;19.044;2023-04-24T05:14:43;12.70;99.90
33761;DHT22;20084;47.912;19.044;2023-04-24T05:17:09;12.60;99.90
33761;DHT22;20084;47.912;19.044;2023-04-24T05:19:35;12.70;99.90
33761;DHT22;20084;47.912;19.044;2023-04-24T05:22:03;12.70;99.90
33761;DHT22;20084;47.912;19.044;2023-04-24T05:24:29;12.80;99.90
33761;DHT22;20084;47.912;19.044;2023-04-24T05:26:55;12.80;99.90
33761;DHT22;20084;47.912;19.044;2023-04-24T05:29:22;12.80;99.90
33761;DHT22;20084;47.912;19.044;2023-04-24T05:31:47;12.90;99.90
33761;DHT22;20084;47.912;19.044;2023-04-24T05:34:13;12.90;99.90
33761;DHT22;20084;47.912;19.044;2023-04-24T05:36:39;13.00;99.90
33761;DHT22;20084;47.912;19.044;2023-04-24T05:39:04;13.10;99.90
33761;DHT22;20084;47.912;19.044;2023-04-24T05:41:30;13.10;99.90
33761;DHT22;20084;47.912;19.044;2023-04-24T05:43:56;13.20;99.90
33761;DHT22;20084;47.912;19.044;2023-04-24T05:46:21;13.20;99.90
33761;DHT22;20084;47.912;19.044;2023-04-24T05:48:47;13.20;99.90
33761;DHT22;20084;47.912;19.044;2023-04-24T05:51:12;13.20;99.90
33761;DHT22;20084;47.912;19.044;2023-04-24T05:53:37;13.20;99.90
33761;DHT22;20084;47.912;19.044;2023-04-24T05:56:03;13.20;99.90
33761;DHT22;20084;47.912;19.044;2023-04-24T05:58:29;13.20;99.90
33761;DHT22;20084;47.912;19.044;2023-04-24T06:00:54;13.30;99.90
33761;DHT22;20084;47.912;19.044;2023-04-24T06:03:20;13.40;99.90
33761;DHT22;20084;47.912;19.044;2023-04-24T06:05:46;13.50;99.90
33761;DHT22;20084;47.912;19.044;2023-04-24T06:08:12;13.50;99.90
33761;DHT22;20084;47.912;19.044;2023-04-24T06:10:37;13.60;99.90
33761;DHT22;20084;47.912;19.044;2023-04-24T06:13:03;13.60;99.90
33761;DHT22;20084;47.912;19.044;2023-04-24T06:15:29;13.70;99.90
33761;DHT22;20084;47.912;19.044;2023-04-24T06:17:55;13.80;99.90
33761;DHT22;20084;47.912;19.044;2023-04-24T06:20:21;13.80;99.90
33761;DHT22;20084;47.912;19.044;2023-04-24T06:22:47;13.80;99.90
33761;DHT22;20084;47.912;19.044;2023-04-24T06:25:12;13.80;99.90
33761;DHT22;20084;47.912;19.044;2023-04-24T06:27:38;13.80;99.90
33761;DHT22;20084;47.912;19.044;2023-04-24T06:30:03;13.80;99.90
33761;DHT22;20084;47.912;19.044;2023-04-24T06:32:29;13.70;99.90
33761;DHT22;20084;47.912;19.044;2023-04-24T06:34:56;13.70;99.90
33761;DHT22;20084;47.912;19.044;2023-04-24T06:37:21;13.70;99.90
33761;DHT22;20084;47.912;19.044;2023-04-24T06:39:47;13.70;99.90
33761;DHT22;20084;47.912;19.044;2023-04-24T06:42:12;13.70;99.90
33761;DHT22;20084;47.912;19.044;2023-04-24T06:44:38;13.70;99.90
33761;DHT22;20084;47.912;19.044;2023-04-24T06:47:06;13.60;99.90
33761;DHT22;20084;47.912;19.044;2023-04-24T06:49:32;13.60;99.90
33761;DHT22;20084;47.912;19.044;2023-04-24T06:51:58;13.60;99.90
33761;DHT22;20084;47.912;19.044;2023-04-24T06:54:23;13.80;99.90
33761;DHT22;20084;47.912;19.044;2023-04-24T06:56:49;13.80;99.90
33761;DHT22;20084;47.912;19.044;2023-04-24T06:59:16;14.00;99.90
33761;DHT22;20084;47.912;19.044;2023-04-24T07:01:42;14.20;99.90
33761;DHT22;20084;47.912;19.044;2023-04-24T07:04:07;14.40;99.90
33761;DHT22;20084;47.912;19.044;2023-04-24T07:06:33;14.60;99.90
33761;DHT22;20084;47.912;19.044;2023-04-24T07:08:58;14.60;99.90
33761;DHT22;20084;47.912;19.044;2023-04-24T07:11:24;14.50;99.90
33761;DHT22;20084;47.912;19.044;2023-04-24T07:13:55;14.50;99.90
33761;DHT22;20084;47.912;19.044;2023-04-24T07:16:20;14.60;99.90
33761;DHT22;20084;47.912;19.044;2023-04-24T07:18:46;14.70;99.90
33761;DHT22;20084;47.912;19.044;2023-04-24T07:21:11;14.80;99.90
33761;DHT22;20084;47.912;19.044;2023-04-24T07:23:37;14.80;99.90
33761;DHT22;20084;47.912;19.044;2023-04-24T07:26:02;14.90;99.90
33761;DHT22;20084;47.912;19.044;2023-04-24T07:28:28;14.90;99.90
33761;DHT22;20084;47.912;19.044;2023-04-24T07:30:56;14.90;99.90
33761;DHT22;20084;47.912;19.044;2023-04-24T07:33:22;15.00;99.90
33761;DHT22;20084;47.912;19.044;2023-04-24T07:35:48;15.00;99.90
33761;DHT22;20084;47.912;19.044;2023-04-24T07:38:13;15.00;99.90
33761;DHT22;20084;47.912;19.044;2023-04-24T07:40:39;15.10;99.90
33761;DHT22;20084;47.912;19.044;2023-04-24T07:43:04;15.10;99.90
33761;DHT22;20084;47.912;19.044;2023-04-24T07:45:30;15.20;99.90
33761;DHT22;20084;47.912;19.044;2023-04-24T07:47:56;15.40;99.90
33761;DHT22;20084;47.912;19.044;2023-04-24T07:50:22;15.50;99.90
33761;DHT22;20084;47.912;19.044;2023-04-24T07:52:47;15.70;99.90
33761;DHT22;20084;47.912;19.044;2023-04-24T07:55:13;15.90;99.90
33761;DHT22;20084;47.912;19.044;2023-04-24T07:57:38;16.00;99.90
33761;DHT22;20084;47.912;19.044;2023-04-24T08:00:04;16.10;99.90
33761;DHT22;20084;47.912;19.044;2023-04-24T08:02:31;16.30;99.90
33761;DHT22;20084;47.912;19.044;2023-04-24T08:04:56;16.30;99.90
33761;DHT22;20084;47.912;19.044;2023-04-24T08:07:22;16.40;99.90
33761;DHT22;20084;47.912;19.044;2023-04-24T08:09:48;16.30;99.90
33761;DHT22;20084;47.912;19.044;2023-04-24T08:12:14;16.20;99.90
33761;DHT22;20084;47.912;19.044;2023-04-24T08:14:39;16.10;99.90
33761;DHT22;20084;47.912;19.044;2023-04-24T08:17:05;15.90;99.90
33761;DHT22;20084;47.912;19.044;2023-04-24T08:19:30;15.70;99.90
33761;DHT22;20084;47.912;19.044;2023-04-24T08:21:56;15.70;99.90
33761;DHT22;20084;47.912;19.044;2023-04-24T08:24:22;15.70;99.90
33761;DHT22;20084;47.912;19.044;2023-04-24T08:26:47;15.70;99.90
33761;DHT22;20084;47.912;19.044;2023-04-24T08:29:15;15.60;99.90
33761;DHT22;20084;47.912;19.044;2023-04-24T08:31:41;15.50;99.90
33761;DHT22;20084;47.912;19.044;2023-04-24T08:34:06;15.40;99.90
33761;DHT22;20084;47.912;19.044;2023-04-24T08:36:32;15.30;99.90
33761;DHT22;20084;47.912;19.044;2023-04-24T08:38:58;15.40;99.90
33761;DHT22;20084;47.912;19.044;2023-04-24T08:41:23;15.50;99.90
33761;DHT22;20084;47.912;19.044;2023-04-24T08:43:51;15.60;99.90
33761;DHT22;20084;47.912;19.044;2023-04-24T08:46:17;15.80;99.90
33761;DHT22;20084;47.912;19.044;2023-04-24T08:48:43;16.00;99.90
33761;DHT22;20084;47.912;19.044;2023-04-24T08:51:09;16.10;99.90
33761;DHT22;20084;47.912;19.044;2023-04-24T08:53:35;16.00;99.90
33761;DHT22;20084;47.912;19.044;2023-04-24T08:56:01;15.90;99.90
33761;DHT22;20084;47.912;19.044;2023-04-24T08:58:27;16.00;99.90
33761;DHT22;20084;47.912;19.044;2023-04-24T09:00:56;16.00;99.90
33761;DHT22;20084;47.912;19.044;2023-04-24T09:03:22;16.10;99.90
33761;DHT22;20084;47.912;19.044;2023-04-24T09:05:48;16.10;99.90
33761;DHT22;20084;47.912;19.044;2023-04-24T09:08:14;16.20;99.90
33761;DHT22;20084;47.912;19.044;2023-04-24T09:10:41;16.20;99.90
33761;DHT22;20084;47.912;19.044;2023-04-24T09:13:06;16.10;99.90
33761;DHT22;20084;47.912;19.044;2023-04-24T09:15:34;16.10;99.90
33761;DHT22;20084;47.912;19.044;2023-04-24T09:18:00;16.00;99.90
33761;DHT22;20084;47.912;19.044;2023-04-24T09:20:26;16.00;99.90
33761;DHT22;20084;47.912;19.044;2023-04-24T09:22:53;16.00;99.90
33761;DHT22;20084;47.912;19.044;2023-04-24T09:43:41;16.30;99.90
33761;DHT22;20084;47.912;19.044;2023-04-24T09:46:07;16.40;99.90
33761;DHT22;20084;47.912;19.044;2023-04-24T09:48:37;16.40;99.90
33761;DHT22;20084;47.912;19.044;2023-04-24T09:51:04;16.50;99.90
33761;DHT22;20084;47.912;19.044;2023-04-24T09:53:32;16.60;99.90
33761;DHT22;20084;47.912;19.044;2023-04-24T09:56:19;16.80;99.90
33761;DHT22;20084;47.912;19.044;2023-04-24T09:58:45;16.80;99.90
33761;DHT22;20084;47.912;19.044;2023-04-24T10:01:11;16.70;99.90
33761;DHT22;20084;47.912;19.044;2023-04-24T10:03:37;16.60;99.90
33761;DHT22;20084;47.912;19.044;2023-04-24T10:06:03;16.60;99.90
33761;DHT22;20084;47.912;19.044;2023-04-24T10:08:34;16.60;99.90
33761;DHT22;20084;47.912;19.044;2023-04-24T10:11:00;16.60;99.90
33761;DHT22;20084;47.912;19.044;2023-04-24T10:13:26;16.70;99.90
33761;DHT22;20084;47.912;19.044;2023-04-24T10:15:53;16.70;99.90
33761;DHT22;20084;47.912;19.044;2023-04-24T10:18:18;16.80;99.90
33761;DHT22;20084;47.912;19.044;2023-04-24T10:20:46;16.70;99.90
33761;DHT22;20084;47.912;19.044;2023-04-24T10:23:11;16.70;99.90
33761;DHT22;20084;47.912;19.044;2023-04-24T10:25:37;16.70;99.90
33761;DHT22;20084;47.912;19.044;2023-04-24T10:28:03;16.70;99.90
33761;DHT22;20084;47.912;19.044;2023-04-24T10:30:29;16.80;99.90
33761;DHT22;20084;47.912;19.044;2023-04-24T10:32:55;16.80;99.90
33761;DHT22;20084;47.912;19.044;2023-04-24T10:35:21;16.80;99.90
33761;DHT22;20084;47.912;19.044;2023-04-24T10:37:50;16.80;99.90
33761;DHT22;20084;47.912;19.044;2023-04-24T10:40:19;16.80;99.90
33761;DHT22;20084;47.912;19.044;2023-04-24T10:42:51;16.80;99.90
33761;DHT22;20084;47.912;19.044;2023-04-24T10:45:18;16.80;99.90
33761;DHT22;20084;47.912;19.044;2023-04-24T10:47:53;16.80;99.90
33761;DHT22;20084;47.912;19.044;2023-04-24T10:50:19;16.90;99.90
33761;DHT22;20084;47.912;19.044;2023-04-24T10:52:45;17.00;99.90
33761;DHT22;20084;47.912;19.044;2023-04-24T10:55:12;16.90;99.90
33761;DHT22;20084;47.912;19.044;2023-04-24T10:57:38;16.80;99.90
33761;DHT22;20084;47.912;19.044;2023-04-24T11:00:13;16.80;99.90
33761;DHT22;20084;47.912;19.044;2023-04-24T11:02:39;16.70;99.90
33761;DHT22;20084;47.912;19.044;2023-04-24T11:05:08;16.70;99.90
33761;DHT22;20084;47.912;19.044;2023-04-24T11:08:09;16.70;99.90
33761;DHT22;20084;47.912;19.044;2023-04-24T11:10:25;16.60;99.90
33761;DHT22;20084;47.912;19.044;2023-04-24T11:12:51;16.60;99.90
33761;DHT22;20084;47.912;19.044;2023-04-24T11:15:16;16.70;99.90
33761;DHT22;20084;47.912;19.044;2023-04-24T11:17:44;16.70;99.90
33761;DHT22;20084;47.912;19.044;2023-04-24T11:20:11;16.60;99.90
33761;DHT22;20084;47.912;19.044;2023-04-24T11:22:38;16.60;99.90
33761;DHT22;20084;47.912;19.044;2023-04-24T11:25:05;16.60;99.90
33761;DHT22;20084;47.912;19.044;2023-04-24T11:27:39;16.70;99.90
33761;DHT22;20084;47.912;19.044;2023-04-24T11:30:05;16.70;99.90
33761;DHT22;20084;47.912;19.044;2023-04-24T11:32:41;16.70;99.90
33761;DHT22;20084;47.912;19.044;2023-04-24T11:35:13;16.70;99.90
33761;DHT22;20084;47.912;19.044;2023-04-24T11:37:41;16.70;99.90
33761;DHT22;20084;47.912;19.044;2023-04-24T11:40:08;16.60;99.90
33761;DHT22;20084;47.912;19.044;2023-04-24T11:42:34;16.60;99.90
33761;DHT22;20084;47.912;19.044;2023-04-24T11:45:00;16.70;99.90
33761;DHT22;20084;47.912;19.044;2023-04-24T11:47:27;16.80;99.90
33761;DHT22;20084;47.912;19.044;2023-04-24T11:49:53;16.80;99.90
33761;DHT22;20084;47.912;19.044;2023-04-24T11:52:19;16.80;99.90
33761;DHT22;20084;47.912;19.044;2023-04-24T11:54:50;16.90;99.90
33761;DHT22;20084;47.912;19.044;2023-04-24T11:57:18;16.90;99.90
33761;DHT22;20084;47.912;19.044;2023-04-24T11:59:44;16.90;99.90
33761;DHT22;20084;47.912;19.044;2023-04-24T12:02:19;16.90;99.90
33761;DHT22;20084;47.912;19.044;2023-04-24T12:04:45;16.90;99.90
33761;DHT22;20084;47.912;19.044;2023-04-24T12:07:10;16.80;99.90
33761;DHT22;20084;47.912;19.044;2023-04-24T12:12:34;16.80;99.90
33761;DHT22;20084;47.912;19.044;2023-04-24T12:15:00;16.70;99.90
33761;DHT22;20084;47.912;19.044;2023-04-24T12:19:51;16.70;99.90
33761;DHT22;20084;47.912;19.044;2023-04-24T12:22:18;16.70;99.90
33761;DHT22;20084;47.912;19.044;2023-04-24T12:25:05;16.60;99.90
33761;DHT22;20084;47.912;19.044;2023-04-24T12:27:33;16.60;99.90
33761;DHT22;20084;47.912;19.044;2023-04-24T12:30:00;16.60;99.90
33761;DHT22;20084;47.912;19.044;2023-04-24T12:32:25;16.60;99.90
33761;DHT22;20084;47.912;19.044;2023-04-24T12:34:54;16.60;99.90
33761;DHT22;20084;47.912;19.044;2023-04-24T12:37:20;16.60;99.90
33761;DHT22;20084;47.912;19.044;2023-04-24T12:42:28;16.60;99.90
33761;DHT22;20084;47.912;19.044;2023-04-24T12:44:57;16.60;99.90
33761;DHT22;20084;47.912;19.044;2023-04-24T12:47:24;16.60;99.90
33761;DHT22;20084;47.912;19.044;2023-04-24T12:49:50;16.70;99.90
33761;DHT22;20084;47.912;19.044;2023-04-24T12:52:21;16.70;99.90
33761;DHT22;20084;47.912;19.044;2023-04-24T12:54:47;16.80;99.90
33761;DHT22;20084;47.912;19.044;2023-04-24T12:57:12;16.80;99.90
33761;DHT22;20084;47.912;19.044;2023-04-24T12:59:37;16.90;99.90
33761;DHT22;20084;47.912;19.044;2023-04-24T13:02:04;16.90;99.90
33761;DHT22;20084;47.912;19.044;2023-04-24T13:04:30;16.90;99.90
33761;DHT22;20084;47.912;19.044;2023-04-24T13:06:55;16.90;99.90
33761;DHT22;20084;47.912;19.044;2023-04-24T13:09:21;16.90;99.90
33761;DHT22;20084;47.912;19.044;2023-04-24T13:11:46;16.80;99.90
33761;DHT22;20084;47.912;19.044;2023-04-24T13:14:12;16.80;99.90
33761;DHT22;20084;47.912;19.044;2023-04-24T13:16:37;16.70;99.90
33761;DHT22;20084;47.912;19.044;2023-04-24T13:19:03;16.70;99.90
33761;DHT22;20084;47.912;19.044;2023-04-24T13:21:29;16.70;99.90
33761;DHT22;20084;47.912;19.044;2023-04-24T13:23:55;16.70;99.90
33761;DHT22;20084;47.912;19.044;2023-04-24T13:26:21;16.70;99.90
33761;DHT22;20084;47.912;19.044;2023-04-24T13:28:46;16.70;99.90
33761;DHT22;20084;47.912;19.044;2023-04-24T13:31:12;16.70;99.90
33761;DHT22;20084;47.912;19.044;2023-04-24T13:33:39;16.60;99.90
33761;DHT22;20084;47.912;19.044;2023-04-24T13:36:05;16.60;99.90
33761;DHT22;20084;47.912;19.044;2023-04-24T13:38:31;16.50;99.90
33761;DHT22;20084;47.912;19.044;2023-04-24T13:40:56;16.50;99.90
33761;DHT22;20084;47.912;19.044;2023-04-24T13:43:22;16.50;99.90
33761;DHT22;20084;47.912;19.044;2023-04-24T13:45:47;16.40;99.90
33761;DHT22;20084;47.912;19.044;2023-04-24T13:48:13;16.30;99.90
33761;DHT22;20084;47.912;19.044;2023-04-24T13:50:41;16.10;99.90
33761;DHT22;20084;47.912;19.044;2023-04-24T13:53:06;16.00;99.90
33761;DHT22;20084;47.912;19.044;2023-04-24T13:55:32;15.90;99.90
33761;DHT22;20084;47.912;19.044;2023-04-24T13:57:57;15.80;99.90
33761;DHT22;20084;47.912;19.044;2023-04-24T14:00:23;15.90;99.90
33761;DHT22;20084;47.912;19.044;2023-04-24T14:02:48;15.90;99.90
33761;DHT22;20084;47.912;19.044;2023-04-24T14:05:14;15.90;99.90
33761;DHT22;20084;47.912;19.044;2023-04-24T14:07:40;16.00;99.90
33761;DHT22;20084;47.912;19.044;2023-04-24T14:10:06;15.90;99.90
33761;DHT22;20084;47.912;19.044;2023-04-24T14:12:32;15.90;99.90
33761;DHT22;20084;47.912;19.044;2023-04-24T14:14:57;15.90;99.90
33761;DHT22;20084;47.912;19.044;2023-04-24T14:17:23;15.90;99.90
33761;DHT22;20084;47.912;19.044;2023-04-24T14:19:48;15.80;99.90
33761;DHT22;20084;47.912;19.044;2023-04-24T14:22:15;15.90;99.90
33761;DHT22;20084;47.912;19.044;2023-04-24T14:24:40;15.90;99.90
33761;DHT22;20084;47.912;19.044;2023-04-24T14:27:06;15.90;99.90
33761;DHT22;20084;47.912;19.044;2023-04-24T14:29:32;15.80;99.90
33761;DHT22;20084;47.912;19.044;2023-04-24T14:31:57;15.80;99.90
33761;DHT22;20084;47.912;19.044;2023-04-24T14:34:23;15.80;99.90
33761;DHT22;20084;47.912;19.044;2023-04-24T14:36:48;15.80;99.90
33761;DHT22;20084;47.912;19.044;2023-04-24T14:39:14;15.70;99.90
33761;DHT22;20084;47.912;19.044;2023-04-24T14:41:39;15.70;99.90
33761;DHT22;20084;47.912;19.044;2023-04-24T14:44:05;15.70;99.90
33761;DHT22;20084;47.912;19.044;2023-04-24T14:46:31;15.70;99.90
33761;DHT22;20084;47.912;19.044;2023-04-24T14:48:57;15.70;99.90
33761;DHT22;20084;47.912;19.044;2023-04-24T14:51:23;15.70;99.90
33761;DHT22;20084;47.912;19.044;2023-04-24T14:53:48;15.70;99.90
33761;DHT22;20084;47.912;19.044;2023-04-24T14:56:14;15.70;99.90
33761;DHT22;20084;47.912;19.044;2023-04-24T14:58:40;15.70;99.90
33761;DHT22;20084;47.912;19.044;2023-04-24T15:01:05;15.70;99.90
33761;DHT22;20084;47.912;19.044;2023-04-24T15:03:31;15.70;99.90
33761;DHT22;20084;47.912;19.044;2023-04-24T15:05:57;15.70;99.90
33761;DHT22;20084;47.912;19.044;2023-04-24T15:08:22;15.70;99.90
33761;DHT22;20084;47.912;19.044;2023-04-24T15:10:47;15.70;99.90
33761;DHT22;20084;47.912;19.044;2023-04-24T15:13:13;15.70;99.90
33761;DHT22;20084;47.912;19.044;2023-04-24T15:15:39;15.70;99.90
33761;DHT22;20084;47.912;19.044;2023-04-24T15:18:05;15.60;99.90
33761;DHT22;20084;47.912;19.044;2023-04-24T15:20:31;15.60;99.90
33761;DHT22;20084;47.912;19.044;2023-04-24T15:22:56;15.50;99.90
33761;DHT22;20084;47.912;19.044;2023-04-24T15:25:23;15.50;99.90
33761;DHT22;20084;47.912;19.044;2023-04-24T15:27:49;15.40;99.90
33761;DHT22;20084;47.912;19.044;2023-04-24T15:30:15;15.20;99.90
33761;DHT22;20084;47.912;19.044;2023-04-24T15:32:40;15.10;99.90
33761;DHT22;20084;47.912;19.044;2023-04-24T15:35:06;15.10;99.90